createdAt,value
2019-01-11T00:00:48.888Z,1.90
2019-01-11T00:03:18.027Z,1.90
2019-01-11T00:05:47.171Z,1.90
2019-01-11T00:08:16.336Z,1.80
2019-01-11T00:10:45.461Z,1.80
2019-01-11T00:13:14.592Z,1.80
2019-01-11T00:15:43.835Z,1.90
2019-01-11T00:18:12.952Z,1.90
2019-01-11T00:20:42.153Z,1.90
2019-01-11T00:23:11.394Z,1.80
2019-01-11T00:25:40.516Z,1.80
2019-01-11T00:28:09.644Z,1.70
2019-01-11T00:30:38.780Z,1.70
2019-01-11T00:33:07.907Z,1.60
2019-01-11T00:35:37.080Z,1.70
2019-01-11T00:38:06.206Z,1.70
2019-01-11T00:40:35.324Z,1.80
2019-01-11T00:43:04.500Z,1.70
2019-01-11T00:45:33.620Z,1.60
2019-01-11T00:48:02.751Z,1.70
2019-01-11T00:50:32.065Z,1.60
2019-01-11T00:53:01.191Z,1.70
2019-01-11T00:55:30.318Z,1.60
2019-01-11T00:57:59.460Z,1.70
2019-01-11T01:00:28.580Z,1.70
2019-01-11T01:02:57.709Z,1.70
2019-01-11T01:05:26.948Z,1.70
2019-01-11T01:07:56.185Z,1.70
2019-01-11T01:10:25.390Z,1.70
2019-01-11T01:12:54.543Z,1.70
2019-01-11T01:15:23.747Z,1.70
2019-01-11T01:17:52.881Z,1.70
2019-01-11T01:20:22.117Z,1.70
2019-01-11T01:22:51.246Z,1.70
2019-01-11T01:25:21.350Z,1.60
2019-01-11T01:27:50.524Z,1.60
2019-01-11T01:30:19.990Z,1.60
2019-01-11T01:32:49.132Z,1.50
2019-01-11T01:35:18.281Z,1.60
2019-01-11T01:37:47.421Z,1.60
2019-01-11T01:40:17.180Z,1.60
2019-01-11T01:42:46.328Z,1.70
2019-01-11T01:45:16.653Z,1.70
2019-01-11T01:47:45.785Z,1.60
2019-01-11T01:50:15.041Z,1.60
2019-01-11T01:52:44.316Z,1.60
2019-01-11T01:55:14.889Z,1.60
2019-01-11T01:57:44.030Z,1.60
2019-01-11T02:00:18.484Z,1.50
2019-01-11T02:02:48.961Z,1.50
2019-01-11T02:05:18.155Z,1.50
2019-01-11T02:07:47.291Z,1.50
2019-01-11T02:10:16.476Z,1.50
2019-01-11T02:12:45.597Z,1.50
2019-01-11T02:15:15.798Z,1.40
2019-01-11T02:17:44.955Z,1.50
2019-01-11T02:20:17.423Z,1.50
2019-01-11T02:22:46.608Z,1.40
2019-01-11T02:25:16.008Z,1.40
2019-01-11T02:27:45.143Z,1.50
2019-01-11T02:30:17.082Z,1.40
2019-01-11T02:32:52.450Z,1.50
2019-01-11T02:35:18.079Z,1.50
2019-01-11T02:37:47.295Z,1.50
2019-01-11T02:40:16.422Z,1.40
2019-01-11T02:42:45.553Z,1.40
2019-01-11T02:45:17.026Z,1.40
2019-01-11T02:47:46.197Z,1.40
2019-01-11T02:50:15.695Z,1.30
2019-01-11T02:52:44.964Z,1.30
2019-01-11T02:55:14.094Z,1.20
2019-01-11T02:57:43.417Z,1.20
2019-01-11T03:00:20.408Z,1.30
2019-01-11T03:02:49.624Z,1.30
2019-01-11T03:05:18.744Z,1.40
2019-01-11T03:07:47.869Z,1.30
2019-01-11T03:10:19.498Z,1.30
2019-01-11T03:12:48.626Z,1.30
2019-01-11T03:15:18.137Z,1.30
2019-01-11T03:17:47.266Z,1.30
2019-01-11T03:20:17.219Z,1.30
2019-01-11T03:22:46.404Z,1.20
2019-01-11T03:25:16.036Z,1.20
2019-01-11T03:27:45.174Z,1.20
2019-01-11T03:30:19.801Z,1.30
2019-01-11T03:32:48.971Z,1.30
2019-01-11T03:35:19.018Z,1.30
2019-01-11T03:37:48.776Z,1.20
2019-01-11T03:40:20.516Z,1.20
2019-01-11T03:42:49.657Z,1.30
2019-01-11T03:45:20.632Z,1.30
2019-01-11T03:47:50.794Z,1.30
2019-01-11T03:50:20.213Z,1.20
2019-01-11T03:52:49.410Z,1.20
2019-01-11T03:55:18.552Z,1.20
2019-01-11T03:57:47.867Z,1.20
2019-01-11T04:00:19.327Z,1.30
2019-01-11T04:02:48.502Z,1.30
2019-01-11T04:05:17.623Z,1.30
2019-01-11T04:07:47.052Z,1.30
2019-01-11T04:10:18.782Z,1.20
2019-01-11T04:12:47.906Z,1.20
2019-01-11T04:15:18.723Z,1.20
2019-01-11T04:17:51.047Z,1.30
2019-01-11T04:20:20.212Z,1.30
2019-01-11T04:22:50.981Z,1.30
2019-01-11T04:25:21.802Z,1.30
2019-01-11T04:27:51.600Z,1.20
2019-01-11T04:30:20.797Z,1.20
2019-01-11T04:32:50.043Z,1.20
2019-01-11T04:35:19.169Z,1.20
2019-01-11T04:37:48.362Z,1.20
2019-01-11T04:40:17.503Z,1.10
2019-01-11T04:42:46.629Z,1.10
2019-01-11T04:45:15.844Z,1.10
2019-01-11T04:47:44.988Z,1.20
2019-01-11T04:50:16.156Z,1.20
2019-01-11T04:52:46.216Z,1.20
2019-01-11T04:55:15.537Z,1.10
2019-01-11T04:57:45.741Z,1.10
2019-01-11T05:00:17.645Z,1.20
2019-01-11T05:02:46.847Z,1.10
2019-01-11T05:05:16.151Z,1.10
2019-01-11T05:07:45.325Z,1.00
2019-01-11T05:10:16.546Z,1.10
2019-01-11T05:12:45.732Z,1.10
2019-01-11T05:15:15.015Z,1.10
2019-01-11T05:17:44.218Z,1.00
2019-01-11T05:20:16.689Z,1.00
2019-01-11T05:22:45.182Z,1.00
2019-01-11T05:25:14.402Z,1.00
2019-01-11T05:27:43.531Z,1.10
2019-01-11T05:30:15.427Z,1.10
2019-01-11T05:32:44.634Z,1.00
2019-01-11T05:35:14.834Z,1.00
2019-01-11T05:37:43.966Z,1.00
2019-01-11T05:40:15.651Z,1.00
2019-01-11T05:42:45.869Z,1.10
2019-01-11T05:45:15.261Z,1.10
2019-01-11T05:47:44.423Z,1.00
2019-01-11T05:50:15.994Z,0.90
2019-01-11T05:52:45.132Z,1.00
2019-01-11T05:55:16.005Z,0.90
2019-01-11T05:57:52.508Z,0.90
2019-01-11T06:00:21.694Z,0.90
2019-01-11T06:02:50.826Z,0.90
2019-01-11T06:05:19.967Z,0.90
2019-01-11T06:07:50.759Z,0.90
2019-01-11T06:10:19.982Z,0.90
2019-01-11T06:12:49.109Z,0.90
2019-01-11T06:15:18.293Z,0.80
2019-01-11T06:17:47.411Z,0.70
2019-01-11T06:20:16.580Z,0.70
2019-01-11T06:22:45.794Z,0.70
2019-01-11T06:25:14.957Z,0.70
2019-01-11T06:27:44.152Z,0.70
2019-01-11T06:30:14.232Z,0.70
2019-01-11T06:32:43.372Z,0.60
2019-01-11T06:35:12.604Z,0.60
2019-01-11T06:37:41.728Z,0.70
2019-01-11T06:40:11.728Z,0.70
2019-01-11T06:42:40.990Z,0.70
2019-01-11T06:45:11.103Z,0.60
2019-01-11T06:47:40.241Z,0.70
2019-01-11T06:50:17.438Z,0.60
2019-01-11T06:52:46.568Z,0.60
2019-01-11T06:55:15.824Z,0.60
2019-01-11T06:57:44.980Z,0.60
2019-01-11T07:00:18.400Z,0.50
2019-01-11T07:02:47.566Z,0.50
2019-01-11T07:05:16.693Z,0.50
2019-01-11T07:07:45.836Z,0.60
2019-01-11T07:10:20.604Z,0.60
2019-01-11T07:12:49.735Z,0.60
2019-01-11T07:15:18.868Z,0.50
2019-01-11T07:17:48.027Z,0.40
2019-01-11T07:20:17.164Z,0.40
2019-01-11T07:22:46.362Z,0.40
2019-01-11T07:25:15.741Z,0.40
2019-01-11T07:27:49.557Z,0.30
2019-01-11T07:30:18.715Z,0.20
2019-01-11T07:32:47.835Z,0.20
2019-01-11T07:35:16.962Z,0.20
2019-01-11T07:37:46.104Z,0.10
2019-01-11T07:40:15.265Z,0.10
2019-01-11T07:42:44.403Z,0.10
2019-01-11T07:45:13.827Z,0.10
2019-01-11T07:47:44.185Z,0.20
2019-01-11T07:50:13.319Z,0.30
2019-01-11T07:52:42.497Z,0.40
2019-01-11T07:55:11.990Z,0.40
2019-01-11T07:57:42.677Z,0.50
2019-01-11T08:00:13.248Z,0.50
2019-01-11T08:02:42.379Z,0.50
2019-01-11T08:05:11.504Z,0.60
2019-01-11T08:07:40.739Z,0.60
2019-01-11T08:10:11.704Z,0.60
2019-01-11T08:12:40.997Z,0.70
2019-01-11T08:15:13.135Z,0.80
2019-01-11T08:17:42.336Z,0.90
2019-01-11T08:20:11.476Z,1.20
2019-01-11T08:22:41.893Z,1.20
2019-01-11T08:25:13.728Z,1.30
2019-01-11T08:27:43.425Z,1.40
2019-01-11T08:30:16.829Z,1.40
2019-01-11T08:32:46.604Z,1.40
2019-01-11T08:35:15.726Z,1.40
2019-01-11T08:37:45.510Z,1.20
2019-01-11T08:40:14.635Z,1.30
2019-01-11T08:42:44.077Z,1.30
2019-01-11T08:45:14.280Z,1.50
2019-01-11T08:47:43.415Z,1.50
2019-01-11T08:50:22.295Z,1.70
2019-01-11T08:52:51.591Z,1.80
2019-01-11T08:55:20.856Z,2.00
2019-01-11T08:57:51.495Z,2.20
2019-01-11T09:00:20.646Z,2.40
2019-01-11T09:02:49.836Z,2.50
2019-01-11T09:05:18.982Z,2.60
2019-01-11T09:07:48.184Z,2.50
2019-01-11T09:10:22.854Z,2.60
2019-01-11T09:12:48.961Z,2.20
2019-01-11T09:15:18.244Z,2.10
2019-01-11T09:17:57.990Z,2.40
2019-01-11T09:20:27.186Z,2.50
2019-01-11T09:22:56.383Z,2.80
2019-01-11T09:25:25.801Z,2.90
2019-01-11T09:27:54.923Z,2.80
2019-01-11T09:30:24.125Z,2.80
2019-01-11T09:32:53.278Z,2.80
2019-01-11T09:35:22.473Z,2.80
2019-01-11T09:37:51.598Z,3.00
2019-01-11T09:40:20.799Z,3.00
2019-01-11T09:42:50.777Z,3.10
2019-01-11T09:45:19.907Z,3.10
2019-01-11T09:47:49.064Z,3.00
2019-01-11T09:50:18.188Z,2.90
2019-01-11T09:52:47.380Z,3.10
2019-01-11T09:55:16.544Z,3.10
2019-01-11T09:57:45.766Z,3.10
2019-01-11T10:00:25.121Z,3.20
2019-01-11T10:02:55.893Z,3.30
2019-01-11T10:05:25.056Z,3.20
2019-01-11T10:07:54.231Z,3.00
2019-01-11T10:10:23.418Z,3.10
2019-01-11T10:12:52.615Z,3.30
2019-01-11T10:15:22.035Z,3.20
2019-01-11T10:17:52.277Z,3.40
2019-01-11T10:20:21.409Z,3.60
2019-01-11T10:22:50.685Z,3.70
2019-01-11T10:25:21.118Z,4.20
2019-01-11T10:27:50.257Z,4.40
2019-01-11T10:30:22.123Z,4.40
2019-01-11T10:32:51.325Z,4.40
2019-01-11T10:35:20.470Z,4.40
2019-01-11T10:37:49.659Z,4.50
2019-01-11T10:40:18.787Z,4.50
2019-01-11T10:42:48.090Z,4.40
2019-01-11T10:45:19.172Z,4.40
2019-01-11T10:47:48.363Z,4.30
2019-01-11T10:50:17.737Z,4.30
2019-01-11T10:52:46.862Z,4.30
2019-01-11T10:55:16.720Z,4.40
2019-01-11T10:57:46.690Z,4.50
2019-01-11T11:00:23.564Z,4.60
2019-01-11T11:02:53.878Z,4.50
2019-01-11T11:05:23.043Z,4.40
2019-01-11T11:07:52.285Z,4.50
2019-01-11T11:10:21.479Z,4.40
2019-01-11T11:12:50.766Z,4.40
2019-01-11T11:15:19.891Z,4.40
2019-01-11T11:17:49.395Z,4.30
2019-01-11T11:20:19.321Z,4.30
2019-01-11T11:22:48.529Z,4.40
2019-01-11T11:25:19.737Z,4.50
2019-01-11T11:27:48.936Z,4.40
2019-01-11T11:30:18.980Z,4.30
2019-01-11T11:32:49.796Z,4.30
2019-01-11T11:35:18.970Z,4.30
2019-01-11T11:37:48.099Z,4.10
2019-01-11T11:40:17.301Z,4.00
2019-01-11T11:42:46.464Z,4.10
2019-01-11T11:45:15.768Z,4.20
2019-01-11T11:47:44.971Z,4.00
2019-01-11T11:50:14.106Z,3.90
2019-01-11T11:52:43.319Z,3.90
2019-01-11T11:55:12.488Z,3.80
2019-01-11T11:57:41.768Z,3.80
2019-01-11T12:00:17.096Z,3.90
2019-01-11T12:02:46.315Z,3.90
2019-01-11T12:05:15.446Z,3.80
2019-01-11T12:07:44.612Z,3.70
2019-01-11T12:10:15.215Z,3.90
2019-01-11T12:12:44.549Z,4.00
2019-01-11T12:15:14.657Z,4.20
2019-01-11T12:17:43.801Z,4.20
2019-01-11T12:20:22.353Z,3.80
2019-01-11T12:22:51.750Z,3.90
2019-01-11T12:25:20.880Z,3.90
2019-01-11T12:27:50.042Z,3.90
2019-01-11T12:30:19.237Z,3.80
2019-01-11T12:32:48.380Z,3.70
2019-01-11T12:35:17.644Z,3.70
2019-01-11T12:37:46.831Z,3.60
2019-01-11T12:40:15.953Z,3.60
2019-01-11T12:42:45.237Z,3.40
2019-01-11T12:45:15.645Z,3.10
2019-01-11T12:47:44.861Z,3.40
2019-01-11T12:50:17.838Z,3.60
2019-01-11T12:52:47.004Z,3.60
2019-01-11T12:55:16.239Z,3.60
2019-01-11T12:57:45.400Z,3.60
2019-01-11T13:00:18.236Z,3.50
2019-01-11T13:02:47.468Z,3.30
2019-01-11T13:05:18.236Z,3.10
2019-01-11T13:07:47.375Z,3.10
2019-01-11T13:10:17.993Z,3.00
2019-01-11T13:12:48.372Z,3.00
2019-01-11T13:15:19.749Z,2.80
2019-01-11T13:17:48.954Z,2.70
2019-01-11T13:20:19.614Z,3.00
2019-01-11T13:22:48.978Z,3.00
2019-01-11T13:25:18.182Z,3.00
2019-01-11T13:27:47.395Z,2.70
2019-01-11T13:30:17.708Z,2.60
2019-01-11T13:32:46.893Z,2.60
2019-01-11T13:35:16.024Z,2.60
2019-01-11T13:37:45.297Z,2.60
2019-01-11T13:40:17.168Z,2.60
2019-01-11T13:42:48.332Z,2.60
2019-01-11T13:45:17.732Z,2.70
2019-01-11T13:47:46.938Z,2.60
2019-01-11T13:50:37.091Z,2.50
2019-01-11T13:53:07.536Z,2.50
2019-01-11T13:55:36.808Z,2.40
2019-01-11T13:58:06.027Z,2.30
2019-01-11T14:00:35.156Z,2.20
2019-01-11T14:03:04.390Z,2.20
2019-01-11T14:05:34.597Z,2.30
2019-01-11T14:08:04.007Z,2.30
2019-01-11T14:10:33.227Z,2.30
2019-01-11T14:13:02.355Z,2.20
2019-01-11T14:15:31.719Z,2.10
2019-01-11T14:18:01.120Z,2.10
2019-01-11T14:20:30.328Z,2.20
2019-01-11T14:22:59.513Z,2.20
2019-01-11T14:25:28.644Z,2.10
2019-01-11T14:27:57.849Z,2.20
2019-01-11T14:30:27.010Z,2.30
2019-01-11T14:32:56.217Z,2.50
2019-01-11T14:35:25.415Z,2.80
2019-01-11T14:37:54.552Z,2.90
2019-01-11T14:40:23.704Z,2.90
2019-01-11T14:42:53.827Z,3.10
2019-01-11T14:45:23.095Z,3.10
2019-01-11T14:47:52.298Z,2.80
2019-01-11T14:50:21.424Z,2.70
2019-01-11T14:52:50.597Z,2.50
2019-01-11T14:55:19.720Z,2.30
2019-01-11T14:57:48.863Z,2.40
2019-01-11T15:00:20.172Z,2.40
2019-01-11T15:02:49.332Z,2.50
2019-01-11T15:05:20.567Z,2.60
2019-01-11T15:07:49.772Z,2.40
2019-01-11T15:10:18.903Z,2.30
2019-01-11T15:12:49.211Z,2.20
2019-01-11T15:15:18.340Z,2.40
2019-01-11T15:17:47.474Z,2.60
2019-01-11T15:20:17.506Z,2.60
2019-01-11T15:22:46.692Z,2.60
2019-01-11T15:25:15.820Z,2.60
2019-01-11T15:27:44.989Z,2.70
2019-01-11T15:30:18.148Z,2.60
2019-01-11T15:32:48.379Z,2.50
2019-01-11T15:35:17.586Z,2.50
2019-01-11T15:37:46.749Z,2.60
2019-01-11T15:40:24.049Z,2.50
2019-01-11T15:42:53.327Z,2.40
2019-01-11T15:45:22.456Z,2.40
2019-01-11T15:47:51.662Z,2.30
2019-01-11T15:50:48.216Z,2.40
2019-01-11T15:53:17.433Z,2.50
2019-01-11T15:55:46.570Z,2.60
2019-01-11T15:58:15.705Z,2.60
2019-01-11T16:00:47.204Z,2.70
2019-01-11T16:03:16.457Z,2.70
2019-01-11T16:05:45.599Z,2.60
2019-01-11T16:08:14.771Z,2.40
2019-01-11T16:11:03.810Z,2.40
2019-01-11T16:13:34.325Z,2.40
2019-01-11T16:16:05.968Z,2.30
2019-01-11T16:18:35.155Z,2.10
2019-01-11T16:21:04.304Z,2.10
2019-01-11T16:23:33.503Z,2.20
2019-01-11T16:26:02.673Z,2.20
2019-01-11T16:28:31.801Z,2.00
2019-01-11T16:31:00.942Z,2.00
2019-01-11T16:33:30.196Z,2.20
2019-01-11T16:35:59.343Z,2.20
2019-01-11T16:38:28.473Z,2.10
2019-01-11T16:40:57.649Z,2.30
2019-01-11T16:43:26.764Z,2.40
2019-01-11T16:45:55.982Z,2.40
2019-01-11T16:48:25.309Z,2.40
2019-01-11T16:50:54.440Z,2.20
2019-01-11T16:53:23.580Z,2.10
2019-01-11T16:55:52.760Z,1.90
2019-01-11T16:58:21.897Z,1.90
2019-01-11T17:00:51.032Z,1.80
2019-01-11T17:03:20.262Z,1.60
2019-01-11T17:05:50.947Z,1.50
2019-01-11T17:08:20.172Z,1.50
2019-01-11T17:10:49.463Z,1.50
2019-01-11T17:13:18.580Z,1.60
2019-01-11T17:15:47.720Z,1.60
2019-01-11T17:18:16.892Z,1.40
2019-01-11T17:20:46.037Z,1.40
2019-01-11T17:23:15.172Z,1.40
2019-01-11T17:25:44.333Z,1.50
2019-01-11T17:28:13.460Z,1.40
2019-01-11T17:30:42.615Z,1.50
2019-01-11T17:33:11.754Z,1.40
2019-01-11T17:35:40.952Z,1.20
2019-01-11T17:38:10.103Z,1.20
2019-01-11T17:40:39.232Z,1.30
2019-01-11T17:43:08.649Z,1.50
2019-01-11T17:45:37.943Z,1.50
2019-01-11T17:48:07.081Z,1.40
2019-01-11T17:50:36.320Z,1.50
2019-01-11T17:53:05.516Z,1.30
2019-01-11T17:55:34.651Z,1.20
2019-01-11T17:58:03.940Z,1.30
2019-01-11T18:00:33.208Z,1.30
2019-01-11T18:03:05.675Z,1.30
2019-01-11T18:05:34.835Z,1.00
2019-01-11T18:08:03.964Z,1.00
2019-01-11T18:10:33.140Z,1.20
2019-01-11T18:13:02.272Z,1.20
2019-01-11T18:15:31.536Z,1.40
2019-01-11T18:18:00.770Z,1.40
2019-01-11T18:20:30.148Z,1.40
2019-01-11T18:22:59.284Z,1.50
2019-01-11T18:25:28.513Z,1.40
2019-01-11T18:27:57.675Z,1.50
2019-01-11T18:30:27.887Z,1.40
2019-01-11T18:32:57.428Z,1.50
2019-01-11T18:35:26.571Z,1.50
2019-01-11T18:37:55.781Z,1.50
2019-01-11T18:40:26.485Z,1.40
2019-01-11T18:42:55.694Z,1.40
2019-01-11T18:45:28.654Z,1.40
2019-01-11T18:47:55.874Z,1.40
2019-01-11T18:50:25.009Z,1.40
2019-01-11T18:52:54.150Z,1.50
2019-01-11T18:55:23.407Z,1.60
2019-01-11T18:57:52.611Z,1.60
2019-01-11T19:00:23.660Z,1.60
2019-01-11T19:02:53.897Z,1.60
2019-01-11T19:05:23.028Z,1.60
2019-01-11T19:07:52.314Z,1.60
2019-01-11T19:10:21.563Z,1.60
2019-01-11T19:12:50.802Z,1.60
2019-01-11T19:15:22.684Z,1.50
2019-01-11T19:17:51.831Z,1.50
2019-01-11T19:20:23.176Z,1.60
2019-01-11T19:22:52.297Z,1.60
2019-01-11T19:25:21.530Z,1.60
2019-01-11T19:27:50.718Z,1.60
2019-01-11T19:30:21.593Z,1.50
2019-01-11T19:32:50.796Z,1.40
2019-01-11T19:35:19.971Z,1.30
2019-01-11T19:37:50.204Z,1.50
2019-01-11T19:40:19.397Z,1.30
2019-01-11T19:42:48.609Z,1.20
2019-01-11T19:45:18.053Z,1.10
2019-01-11T19:47:47.352Z,1.10
2019-01-11T19:50:19.109Z,1.20
2019-01-11T19:52:48.237Z,1.20
2019-01-11T19:55:17.378Z,1.20
2019-01-11T19:57:46.652Z,1.00
2019-01-11T20:00:23.652Z,1.00
2019-01-11T20:02:53.110Z,1.10
2019-01-11T20:05:22.302Z,1.20
2019-01-11T20:07:51.515Z,1.10
2019-01-11T20:10:26.087Z,1.10
2019-01-11T20:12:56.330Z,1.10
2019-01-11T20:15:25.566Z,1.00
2019-01-11T20:17:54.954Z,1.10
2019-01-11T20:20:24.144Z,1.00
2019-01-11T20:22:53.420Z,1.10
2019-01-11T20:25:23.430Z,1.10
2019-01-11T20:27:52.572Z,1.20
2019-01-11T20:30:23.935Z,1.10
2019-01-11T20:32:53.081Z,1.30
2019-01-11T20:35:22.227Z,1.20
2019-01-11T20:37:52.474Z,1.20
2019-01-11T20:40:21.729Z,1.10
2019-01-11T20:42:50.852Z,1.20
2019-01-11T20:45:20.089Z,1.20
2019-01-11T20:47:50.302Z,1.20
2019-01-11T20:50:21.088Z,1.10
2019-01-11T20:52:50.247Z,1.20
2019-01-11T20:55:19.546Z,1.40
2019-01-11T20:57:48.712Z,1.50
2019-01-11T21:00:29.020Z,1.10
2019-01-11T21:02:58.319Z,1.30
2019-01-11T21:05:27.590Z,1.50
2019-01-11T21:07:56.723Z,1.60
2019-01-11T21:10:25.912Z,1.40
2019-01-11T21:12:55.083Z,1.40
2019-01-11T21:15:24.309Z,1.40
2019-01-11T21:17:53.484Z,1.30
2019-01-11T21:20:22.636Z,1.30
2019-01-11T21:22:51.766Z,1.50
2019-01-11T21:25:21.187Z,1.50
2019-01-11T21:27:50.469Z,1.50
2019-01-11T21:30:24.929Z,1.60
2019-01-11T21:32:54.076Z,1.70
2019-01-11T21:35:23.225Z,1.50
2019-01-11T21:37:52.401Z,1.30
2019-01-11T21:40:21.553Z,1.50
2019-01-11T21:42:50.867Z,1.60
2019-01-11T21:45:20.034Z,1.50
2019-01-11T21:47:49.231Z,1.30
2019-01-11T21:50:21.872Z,1.40
2019-01-11T21:52:51.080Z,1.50
2019-01-11T21:55:20.214Z,1.40
2019-01-11T21:57:49.532Z,1.60
2019-01-11T22:00:21.756Z,1.50
2019-01-11T22:02:51.010Z,1.60
2019-01-11T22:05:20.198Z,1.50
2019-01-11T22:07:49.353Z,1.30
2019-01-11T22:10:18.510Z,1.40
2019-01-11T22:12:47.818Z,1.50
2019-01-11T22:15:19.083Z,1.40
2019-01-11T22:17:48.229Z,1.30
2019-01-11T22:20:18.405Z,1.10
2019-01-11T22:22:47.577Z,1.10
2019-01-11T22:25:18.113Z,1.30
2019-01-11T22:27:47.312Z,1.30
2019-01-11T22:30:30.138Z,1.40
2019-01-11T22:32:54.980Z,1.40
2019-01-11T22:35:24.121Z,1.40
2019-01-11T22:37:53.272Z,1.20
2019-01-11T22:40:23.847Z,1.10
2019-01-11T22:42:55.151Z,1.10
2019-01-11T22:45:24.285Z,1.00
2019-01-11T22:47:53.422Z,1.20
2019-01-11T22:50:22.568Z,1.20
2019-01-11T22:52:52.488Z,1.00
2019-01-11T22:55:21.776Z,1.00
2019-01-11T22:57:50.913Z,1.10
2019-01-11T23:00:24.975Z,0.90
2019-01-11T23:02:58.524Z,1.00
2019-01-11T23:05:27.683Z,1.10
2019-01-11T23:07:57.703Z,1.00
2019-01-11T23:10:32.530Z,1.00
2019-01-11T23:13:01.853Z,1.10
2019-01-11T23:15:30.987Z,1.30
2019-01-11T23:18:00.223Z,1.30
2019-01-11T23:20:29.399Z,1.20
2019-01-11T23:22:58.525Z,1.20
2019-01-11T23:25:27.659Z,1.30
2019-01-11T23:27:57.001Z,1.10
2019-01-11T23:30:26.135Z,1.10
2019-01-11T23:32:55.279Z,1.00
2019-01-11T23:35:24.484Z,0.90
2019-01-11T23:37:53.717Z,1.10
2019-01-11T23:40:22.860Z,1.20
2019-01-11T23:42:52.115Z,1.20
2019-01-11T23:45:21.262Z,1.10
2019-01-11T23:47:50.412Z,1.20
2019-01-11T23:50:19.580Z,1.10
2019-01-11T23:52:48.781Z,1.10
2019-01-11T23:55:17.945Z,1.30
2019-01-11T23:57:47.200Z,1.40
